createdAt,value
2023-03-07T00:00:01.034Z,8.1
2023-03-07T00:01:00.820Z,8.1
2023-03-07T00:02:00.860Z,8.1
2023-03-07T00:03:00.894Z,8.1
2023-03-07T00:04:01.225Z,8.1
2023-03-07T00:05:00.792Z,8.1
2023-03-07T00:06:03.280Z,8.1
2023-03-07T00:07:00.824Z,8.1
2023-03-07T00:08:00.866Z,8.1
2023-03-07T00:09:01.322Z,8.1
2023-03-07T00:10:00.790Z,8.1
2023-03-07T00:11:02.753Z,8.1
2023-03-07T00:12:00.775Z,8.1
2023-03-07T00:13:00.978Z,8.1
2023-03-07T00:14:00.814Z,8.1
2023-03-07T00:15:00.945Z,8.1
2023-03-07T00:16:01.598Z,8.1
2023-03-07T00:17:00.965Z,8.1
2023-03-07T00:18:00.828Z,8.1
2023-03-07T00:19:00.829Z,8.1
2023-03-07T00:20:00.812Z,8.1
2023-03-07T00:21:02.796Z,8.1
2023-03-07T00:22:00.916Z,8.1
2023-03-07T00:23:00.806Z,8.0
2023-03-07T00:24:00.859Z,8.0
2023-03-07T00:25:01.059Z,8.0
2023-03-07T00:26:02.264Z,8.0
2023-03-07T00:27:00.846Z,8.0
2023-03-07T00:28:00.817Z,8.0
2023-03-07T00:29:00.825Z,8.0
2023-03-07T00:30:01.153Z,8.0
2023-03-07T00:31:01.845Z,8.0
2023-03-07T00:32:00.879Z,8.0
2023-03-07T00:33:00.812Z,8.0
2023-03-07T00:34:01.015Z,8.0
2023-03-07T00:35:01.058Z,8.0
2023-03-07T00:36:10.684Z,8.0
2023-03-07T00:37:00.823Z,8.0
2023-03-07T00:38:00.846Z,8.0
2023-03-07T00:39:00.900Z,8.0
2023-03-07T00:40:00.819Z,8.0
2023-03-07T00:41:05.626Z,8.0
2023-03-07T00:42:00.863Z,8.0
2023-03-07T00:43:00.807Z,8.0
2023-03-07T00:44:00.839Z,8.0
2023-03-07T00:45:00.806Z,8.0
2023-03-07T00:46:01.308Z,8.0
2023-03-07T00:47:00.897Z,8.1
2023-03-07T00:48:00.816Z,8.1
2023-03-07T00:49:00.789Z,8.1
2023-03-07T00:50:00.792Z,8.1
2023-03-07T00:51:01.208Z,8.1
2023-03-07T00:52:00.879Z,8.1
2023-03-07T00:53:00.781Z,8.1
2023-03-07T00:54:00.807Z,8.1
2023-03-07T00:55:00.807Z,8.1
2023-03-07T00:56:02.772Z,8.1
2023-03-07T00:57:00.863Z,8.1
2023-03-07T00:58:00.950Z,8.1
2023-03-07T00:59:00.796Z,8.1
2023-03-07T01:00:00.839Z,8.1
2023-03-07T01:01:01.313Z,8.1
2023-03-07T01:02:00.772Z,8.1
2023-03-07T01:03:01.034Z,8.2
2023-03-07T01:04:00.983Z,8.2
2023-03-07T01:05:00.826Z,8.2
2023-03-07T01:06:02.176Z,8.2
2023-03-07T01:07:00.822Z,8.2
2023-03-07T01:08:00.864Z,8.1
2023-03-07T01:09:03.278Z,8.1
2023-03-07T01:10:00.802Z,8.1
2023-03-07T01:11:01.987Z,8.1
2023-03-07T01:12:00.825Z,8.0
2023-03-07T01:13:01.197Z,8.0
2023-03-07T01:14:02.134Z,8.0
2023-03-07T01:15:01.089Z,8.0
2023-03-07T01:16:10.731Z,8.0
2023-03-07T01:17:00.915Z,8.0
2023-03-07T01:18:00.844Z,8.0
2023-03-07T01:19:03.021Z,8.0
2023-03-07T01:20:01.315Z,8.0
2023-03-07T01:21:00.811Z,8.0
2023-03-07T01:22:00.850Z,7.9
2023-03-07T01:23:00.974Z,7.9
2023-03-07T01:24:00.930Z,7.9
2023-03-07T01:25:00.866Z,7.9
2023-03-07T01:26:00.834Z,7.9
2023-03-07T01:27:00.796Z,7.9
2023-03-07T01:28:01.018Z,7.9
2023-03-07T01:29:02.152Z,7.9
2023-03-07T01:30:00.879Z,7.8
2023-03-07T01:31:00.916Z,7.8
2023-03-07T01:32:00.962Z,7.8
2023-03-07T01:33:01.194Z,7.8
2023-03-07T01:34:00.915Z,7.8
2023-03-07T01:35:00.808Z,7.8
2023-03-07T01:36:00.924Z,7.8
2023-03-07T01:37:00.797Z,7.8
2023-03-07T01:38:00.859Z,7.8
2023-03-07T01:39:05.957Z,7.8
2023-03-07T01:40:00.848Z,7.7
2023-03-07T01:41:01.298Z,7.8
2023-03-07T01:42:00.874Z,7.8
2023-03-07T01:43:10.768Z,7.8
2023-03-07T01:44:02.663Z,7.8
2023-03-07T01:45:06.510Z,7.8
2023-03-07T01:46:10.686Z,7.8
2023-03-07T01:47:01.007Z,7.9
2023-03-07T01:48:00.825Z,7.9
2023-03-07T01:49:04.490Z,7.9
2023-03-07T01:50:02.855Z,7.9
2023-03-07T01:51:00.866Z,7.9
2023-03-07T01:52:03.750Z,7.9
2023-03-07T01:53:00.857Z,7.9
2023-03-07T01:54:01.162Z,8.0
2023-03-07T01:55:02.415Z,8.0
2023-03-07T01:56:00.855Z,8.0
2023-03-07T01:57:01.319Z,8.0
2023-03-07T01:58:04.352Z,8.1
2023-03-07T01:59:00.844Z,8.1
2023-03-07T02:00:03.507Z,8.1
2023-03-07T02:01:01.181Z,8.1
2023-03-07T02:02:04.447Z,8.1
2023-03-07T02:03:01.875Z,8.1
2023-03-07T02:04:01.961Z,8.1
2023-03-07T02:05:04.734Z,8.1
2023-03-07T02:06:03.144Z,8.2
2023-03-07T02:07:01.832Z,8.2
2023-03-07T02:08:01.873Z,8.2
2023-03-07T02:09:01.350Z,8.1
2023-03-07T02:10:00.977Z,8.1
2023-03-07T02:11:00.818Z,8.0
2023-03-07T02:12:01.041Z,8.0
2023-03-07T02:13:01.218Z,7.8
2023-03-07T02:14:00.795Z,7.7
2023-03-07T02:15:01.700Z,7.6
2023-03-07T02:16:02.068Z,7.5
2023-03-07T02:17:00.840Z,7.4
2023-03-07T02:18:01.110Z,7.3
2023-03-07T02:19:00.931Z,7.2
2023-03-07T02:20:10.678Z,7.2
2023-03-07T02:21:10.650Z,7.2
2023-03-07T02:22:06.562Z,7.2
2023-03-07T02:23:01.471Z,7.2
2023-03-07T02:24:08.662Z,7.2
2023-03-07T02:25:01.816Z,7.2
2023-03-07T02:26:01.121Z,7.2
2023-03-07T02:27:00.982Z,7.3
2023-03-07T02:28:02.155Z,7.3
2023-03-07T02:29:01.735Z,7.3
2023-03-07T02:30:01.119Z,7.3
2023-03-07T02:31:02.357Z,7.3
2023-03-07T02:32:00.943Z,7.4
2023-03-07T02:33:00.895Z,7.4
2023-03-07T02:34:00.791Z,7.4
2023-03-07T02:35:00.882Z,7.4
2023-03-07T02:36:03.756Z,7.4
2023-03-07T02:37:03.982Z,7.4
2023-03-07T02:38:02.129Z,7.4
2023-03-07T02:39:01.744Z,7.4
2023-03-07T02:40:03.885Z,7.4
2023-03-07T02:41:01.149Z,7.4
2023-03-07T02:42:05.268Z,7.4
2023-03-07T02:43:02.690Z,7.4
2023-03-07T02:44:00.860Z,7.4
2023-03-07T02:45:01.874Z,7.4
2023-03-07T02:46:00.856Z,7.4
2023-03-07T02:47:00.938Z,7.4
2023-03-07T02:48:01.049Z,7.4
2023-03-07T02:49:00.823Z,7.4
2023-03-07T02:50:00.877Z,7.4
2023-03-07T02:51:00.799Z,7.4
2023-03-07T02:52:01.144Z,7.4
2023-03-07T02:53:00.976Z,7.4
2023-03-07T02:54:00.882Z,7.4
2023-03-07T02:55:00.872Z,7.4
2023-03-07T02:56:00.823Z,7.4
2023-03-07T02:57:00.831Z,7.3
2023-03-07T02:58:00.895Z,7.3
2023-03-07T02:59:00.863Z,7.3
2023-03-07T03:00:01.185Z,7.3
2023-03-07T03:01:00.796Z,7.3
2023-03-07T03:02:00.876Z,7.3
2023-03-07T03:03:00.808Z,7.3
2023-03-07T03:04:00.786Z,7.3
2023-03-07T03:05:00.884Z,7.2
2023-03-07T03:06:00.872Z,7.2
2023-03-07T03:07:00.860Z,7.2
2023-03-07T03:08:00.833Z,7.2
2023-03-07T03:09:01.866Z,7.2
2023-03-07T03:10:01.034Z,7.2
2023-03-07T03:11:00.799Z,7.2
2023-03-07T03:12:00.809Z,7.2
2023-03-07T03:13:00.823Z,7.1
2023-03-07T03:14:00.807Z,7.1
2023-03-07T03:15:00.916Z,7.1
2023-03-07T03:16:00.875Z,7.1
2023-03-07T03:17:00.840Z,7.1
2023-03-07T03:18:00.904Z,7.1
2023-03-07T03:19:00.784Z,7.1
2023-03-07T03:20:00.841Z,7.1
2023-03-07T03:21:06.449Z,7.1
2023-03-07T03:22:00.853Z,7.1
2023-03-07T03:23:00.942Z,7.1
2023-03-07T03:24:05.113Z,7.1
2023-03-07T03:25:00.841Z,7.1
2023-03-07T03:26:02.364Z,7.1
2023-03-07T03:27:00.847Z,7.1
2023-03-07T03:28:00.852Z,7.1
2023-03-07T03:29:01.295Z,7.1
2023-03-07T03:30:00.901Z,7.1
2023-03-07T03:31:02.289Z,7.1
2023-03-07T03:32:01.103Z,7.1
2023-03-07T03:33:01.466Z,7.1
2023-03-07T03:34:01.230Z,7.1
2023-03-07T03:35:00.856Z,7.1
2023-03-07T03:36:05.174Z,7.1
2023-03-07T03:37:00.843Z,7.1
2023-03-07T03:38:00.793Z,7.1
2023-03-07T03:39:00.857Z,7.1
2023-03-07T03:40:00.899Z,7.1
2023-03-07T03:41:02.936Z,7.1
2023-03-07T03:42:01.089Z,7.1
2023-03-07T03:43:00.882Z,7.1
2023-03-07T03:44:00.810Z,7.1
2023-03-07T03:45:00.854Z,7.1
2023-03-07T03:46:01.031Z,7.0
2023-03-07T03:47:00.917Z,7.0
2023-03-07T03:48:00.878Z,7.0
2023-03-07T03:49:01.097Z,7.0
2023-03-07T03:50:00.814Z,7.0
2023-03-07T03:51:03.326Z,7.0
2023-03-07T03:52:00.861Z,7.0
2023-03-07T03:53:01.536Z,7.0
2023-03-07T03:54:00.884Z,7.0
2023-03-07T03:55:00.825Z,7.0
2023-03-07T03:56:04.308Z,7.0
2023-03-07T03:57:00.908Z,7.0
2023-03-07T03:58:00.832Z,7.0
2023-03-07T03:59:00.841Z,7.0
2023-03-07T04:00:00.916Z,6.9
2023-03-07T04:01:01.249Z,6.9
2023-03-07T04:02:00.916Z,6.9
2023-03-07T04:03:00.877Z,6.9
2023-03-07T04:04:01.285Z,6.9
2023-03-07T04:05:00.904Z,6.9
2023-03-07T04:06:01.788Z,6.9
2023-03-07T04:07:00.866Z,6.9
2023-03-07T04:08:00.882Z,6.9
2023-03-07T04:09:00.821Z,6.9
2023-03-07T04:10:00.848Z,6.9
2023-03-07T04:11:01.143Z,6.9
2023-03-07T04:12:00.993Z,6.9
2023-03-07T04:13:00.794Z,6.9
2023-03-07T04:14:01.169Z,6.8
2023-03-07T04:15:00.830Z,6.8
2023-03-07T04:16:01.374Z,6.8
2023-03-07T04:17:00.789Z,6.8
2023-03-07T04:18:00.817Z,6.8
2023-03-07T04:19:00.845Z,6.8
2023-03-07T04:20:00.768Z,6.8
2023-03-07T04:21:01.280Z,6.8
2023-03-07T04:22:00.795Z,6.7
2023-03-07T04:23:00.855Z,6.8
2023-03-07T04:24:00.818Z,6.8
2023-03-07T04:25:00.789Z,6.8
2023-03-07T04:26:03.483Z,6.8
2023-03-07T04:27:00.914Z,6.8
2023-03-07T04:28:00.841Z,6.8
2023-03-07T04:29:01.262Z,6.8
2023-03-07T04:30:00.859Z,6.8
2023-03-07T04:31:00.831Z,6.8
2023-03-07T04:32:00.977Z,6.8
2023-03-07T04:33:00.826Z,6.8
2023-03-07T04:34:00.838Z,6.8
2023-03-07T04:35:00.845Z,6.8
2023-03-07T04:36:00.896Z,6.8
2023-03-07T04:37:00.826Z,6.8
2023-03-07T04:38:01.005Z,6.8
2023-03-07T04:39:00.837Z,6.8
2023-03-07T04:40:00.860Z,6.9
2023-03-07T04:41:00.839Z,6.9
2023-03-07T04:42:00.818Z,6.9
2023-03-07T04:43:00.935Z,6.9
2023-03-07T04:44:00.822Z,6.9
2023-03-07T04:45:00.802Z,6.9
2023-03-07T04:46:00.891Z,6.9
2023-03-07T04:47:00.785Z,6.9
2023-03-07T04:48:00.862Z,6.9
2023-03-07T04:49:00.876Z,6.9
2023-03-07T04:50:00.784Z,6.9
2023-03-07T04:51:00.785Z,6.9
2023-03-07T04:52:00.767Z,6.9
2023-03-07T04:53:00.799Z,6.9
2023-03-07T04:54:00.836Z,6.9
2023-03-07T04:55:00.804Z,6.9
2023-03-07T04:56:01.940Z,6.9
2023-03-07T04:57:00.839Z,6.9
2023-03-07T04:58:00.914Z,6.9
2023-03-07T04:59:00.823Z,6.8
2023-03-07T05:00:01.081Z,6.8
2023-03-07T05:01:01.520Z,6.8
2023-03-07T05:02:00.759Z,6.8
2023-03-07T05:03:00.797Z,6.8
2023-03-07T05:04:00.894Z,6.8
2023-03-07T05:05:00.852Z,6.8
2023-03-07T05:06:02.196Z,6.8
2023-03-07T05:07:00.850Z,6.8
2023-03-07T05:08:01.408Z,6.9
2023-03-07T05:09:00.862Z,6.9
2023-03-07T05:10:00.966Z,6.9
2023-03-07T05:11:01.453Z,7.0
2023-03-07T05:12:00.805Z,7.0
2023-03-07T05:13:00.969Z,7.0
2023-03-07T05:14:00.815Z,7.1
2023-03-07T05:15:01.097Z,7.1
2023-03-07T05:16:00.857Z,7.2
2023-03-07T05:17:00.771Z,7.2
2023-03-07T05:18:00.958Z,7.2
2023-03-07T05:19:00.847Z,7.2
2023-03-07T05:20:00.868Z,7.2
2023-03-07T05:21:00.801Z,7.3
2023-03-07T05:22:00.891Z,7.3
2023-03-07T05:23:00.812Z,7.2
2023-03-07T05:24:00.802Z,7.2
2023-03-07T05:25:00.826Z,7.2
2023-03-07T05:26:00.802Z,7.2
2023-03-07T05:27:00.864Z,7.2
2023-03-07T05:28:00.840Z,7.2
2023-03-07T05:29:00.933Z,7.2
2023-03-07T05:30:00.854Z,7.2
2023-03-07T05:31:00.854Z,7.3
2023-03-07T05:32:00.898Z,7.3
2023-03-07T05:33:00.847Z,7.3
2023-03-07T05:34:00.909Z,7.3
2023-03-07T05:35:00.930Z,7.3
2023-03-07T05:36:01.130Z,7.3
2023-03-07T05:37:00.830Z,7.3
2023-03-07T05:38:00.826Z,7.4
2023-03-07T05:39:00.999Z,7.4
2023-03-07T05:40:02.512Z,7.4
2023-03-07T05:41:00.794Z,7.3
2023-03-07T05:42:00.783Z,7.3
2023-03-07T05:43:00.917Z,7.3
2023-03-07T05:44:01.025Z,7.2
2023-03-07T05:45:01.014Z,7.2
2023-03-07T05:46:00.825Z,7.2
2023-03-07T05:47:00.913Z,7.1
2023-03-07T05:48:00.858Z,7.2
2023-03-07T05:49:00.876Z,7.2
2023-03-07T05:50:00.851Z,7.2
2023-03-07T05:51:00.874Z,7.2
2023-03-07T05:52:01.048Z,7.2
2023-03-07T05:53:00.835Z,7.2
2023-03-07T05:54:00.841Z,7.2
2023-03-07T05:55:00.923Z,7.2
2023-03-07T05:56:00.823Z,7.2
2023-03-07T05:57:00.817Z,7.2
2023-03-07T05:58:00.962Z,7.2
2023-03-07T05:59:00.818Z,7.3
2023-03-07T06:00:00.934Z,7.3
2023-03-07T06:01:01.328Z,7.3
2023-03-07T06:02:00.805Z,7.3
2023-03-07T06:03:03.258Z,7.3
2023-03-07T06:04:00.802Z,7.3
2023-03-07T06:05:00.798Z,7.3
2023-03-07T06:06:00.851Z,7.3
2023-03-07T06:07:00.809Z,7.3
2023-03-07T06:08:00.830Z,7.3
2023-03-07T06:09:01.108Z,7.3
2023-03-07T06:10:00.844Z,7.3
2023-03-07T06:11:00.912Z,7.3
2023-03-07T06:12:00.853Z,7.3
2023-03-07T06:13:00.819Z,7.3
2023-03-07T06:14:00.879Z,7.2
2023-03-07T06:15:01.311Z,7.2
2023-03-07T06:16:00.828Z,7.2
2023-03-07T06:17:00.895Z,7.2
2023-03-07T06:18:00.793Z,7.2
2023-03-07T06:19:00.855Z,7.2
2023-03-07T06:20:00.809Z,7.2
2023-03-07T06:21:02.260Z,7.2
2023-03-07T06:22:00.916Z,7.2
2023-03-07T06:23:00.819Z,7.2
2023-03-07T06:24:00.862Z,7.2
2023-03-07T06:25:00.828Z,7.2
2023-03-07T06:26:01.002Z,7.2
2023-03-07T06:27:00.856Z,7.2
2023-03-07T06:28:00.975Z,7.2
2023-03-07T06:29:00.844Z,7.2
2023-03-07T06:30:01.000Z,7.2
2023-03-07T06:31:00.894Z,7.2
2023-03-07T06:32:00.875Z,7.2
2023-03-07T06:33:00.859Z,7.2
2023-03-07T06:34:00.911Z,7.2
2023-03-07T06:35:00.978Z,7.2
2023-03-07T06:36:04.115Z,7.2
2023-03-07T06:37:00.839Z,7.2
2023-03-07T06:38:00.840Z,7.3
2023-03-07T06:39:00.912Z,7.3
2023-03-07T06:40:00.832Z,7.3
2023-03-07T06:41:01.063Z,7.3
2023-03-07T06:42:00.805Z,7.3
2023-03-07T06:43:00.871Z,7.3
2023-03-07T06:44:00.870Z,7.3
2023-03-07T06:45:00.805Z,7.3
2023-03-07T06:46:01.350Z,7.3
2023-03-07T06:47:00.835Z,7.3
2023-03-07T06:48:00.832Z,7.3
2023-03-07T06:49:00.837Z,7.4
2023-03-07T06:50:01.162Z,7.4
2023-03-07T06:51:08.519Z,7.4
2023-03-07T06:52:00.853Z,7.4
2023-03-07T06:53:00.829Z,7.4
2023-03-07T06:54:00.871Z,7.5
2023-03-07T06:55:00.846Z,7.5
2023-03-07T06:56:01.151Z,7.5
2023-03-07T06:57:00.791Z,7.6
2023-03-07T06:58:00.833Z,7.6
2023-03-07T06:59:00.866Z,7.6
2023-03-07T07:00:03.675Z,7.7
2023-03-07T07:01:00.961Z,7.7
2023-03-07T07:02:01.562Z,7.8
2023-03-07T07:03:00.964Z,7.8
2023-03-07T07:04:00.813Z,7.9
2023-03-07T07:05:01.297Z,8.1
2023-03-07T07:06:00.781Z,8.3
2023-03-07T07:07:00.800Z,8.4
2023-03-07T07:08:00.853Z,8.6
2023-03-07T07:09:00.837Z,8.8
2023-03-07T07:10:00.826Z,9.1
2023-03-07T07:11:00.896Z,9.3
2023-03-07T07:12:01.117Z,9.5
2023-03-07T07:13:00.970Z,9.7
2023-03-07T07:14:00.856Z,9.8
2023-03-07T07:15:00.763Z,10.0
2023-03-07T07:16:05.238Z,10.2
2023-03-07T07:17:00.824Z,10.3
2023-03-07T07:18:00.817Z,10.6
2023-03-07T07:19:00.959Z,10.8
2023-03-07T07:20:01.999Z,10.9
2023-03-07T07:21:00.843Z,11.2
2023-03-07T07:22:00.818Z,11.4
2023-03-07T07:23:00.852Z,11.6
2023-03-07T07:24:00.772Z,11.9
2023-03-07T07:25:00.845Z,12.1
2023-03-07T07:26:00.810Z,12.4
2023-03-07T07:27:00.823Z,12.6
2023-03-07T07:28:00.795Z,12.8
2023-03-07T07:29:00.816Z,12.9
2023-03-07T07:30:00.897Z,13.0
2023-03-07T07:31:00.907Z,13.2
2023-03-07T07:32:01.676Z,13.5
2023-03-07T07:33:00.896Z,13.7
2023-03-07T07:34:00.929Z,13.8
2023-03-07T07:35:00.833Z,13.8
2023-03-07T07:36:00.908Z,13.9
2023-03-07T07:37:00.894Z,14.1
2023-03-07T07:38:00.893Z,14.4
2023-03-07T07:39:04.940Z,14.7
2023-03-07T07:40:00.800Z,14.9
2023-03-07T07:41:00.820Z,15.0
2023-03-07T07:42:00.787Z,15.0
2023-03-07T07:43:00.878Z,15.0
2023-03-07T07:44:01.116Z,15.2
2023-03-07T07:45:00.906Z,15.4
2023-03-07T07:46:03.031Z,15.8
2023-03-07T07:47:00.842Z,16.0
2023-03-07T07:48:00.813Z,16.2
2023-03-07T07:49:00.811Z,16.2
2023-03-07T07:50:00.851Z,16.2
2023-03-07T07:51:01.679Z,16.2
2023-03-07T07:52:00.823Z,16.2
2023-03-07T07:53:00.763Z,16.3
2023-03-07T07:54:00.868Z,16.5
2023-03-07T07:55:00.869Z,16.5
2023-03-07T07:56:00.982Z,16.5
2023-03-07T07:57:00.797Z,16.6
2023-03-07T07:58:01.023Z,16.8
2023-03-07T07:59:00.799Z,16.8
2023-03-07T08:00:00.982Z,16.9
2023-03-07T08:01:00.827Z,17.0
2023-03-07T08:02:00.927Z,17.2
2023-03-07T08:03:00.805Z,17.4
2023-03-07T08:04:00.792Z,17.5
2023-03-07T08:05:01.071Z,17.5
2023-03-07T08:06:00.792Z,17.7
2023-03-07T08:07:00.940Z,17.9
2023-03-07T08:08:00.810Z,18.3
2023-03-07T08:09:01.142Z,18.5
2023-03-07T08:10:00.913Z,18.7
2023-03-07T08:11:00.895Z,18.9
2023-03-07T08:12:00.793Z,19.2
2023-03-07T08:13:00.833Z,19.4
2023-03-07T08:14:01.327Z,19.5
2023-03-07T08:15:00.808Z,19.7
2023-03-07T08:16:07.835Z,19.9
2023-03-07T08:17:00.817Z,20.1
2023-03-07T08:18:00.880Z,20.7
2023-03-07T08:19:00.866Z,21.1
2023-03-07T08:20:01.579Z,21.4
2023-03-07T08:21:00.820Z,21.6
2023-03-07T08:22:01.381Z,21.7
2023-03-07T08:23:00.822Z,21.7
2023-03-07T08:24:00.873Z,21.8
2023-03-07T08:25:00.886Z,22.0
2023-03-07T08:26:06.180Z,22.2
2023-03-07T08:27:00.807Z,22.4
2023-03-07T08:28:00.802Z,22.5
2023-03-07T08:29:00.860Z,22.6
2023-03-07T08:30:00.837Z,22.5
2023-03-07T08:31:09.612Z,22.4
2023-03-07T08:32:00.823Z,22.5
2023-03-07T08:33:00.819Z,22.7
2023-03-07T08:34:00.815Z,22.9
2023-03-07T08:35:00.824Z,23.1
2023-03-07T08:36:01.040Z,23.3
2023-03-07T08:37:00.838Z,23.5
2023-03-07T08:38:00.854Z,23.9
2023-03-07T08:39:00.815Z,24.1
2023-03-07T08:40:01.089Z,24.1
2023-03-07T08:41:01.344Z,24.1
2023-03-07T08:42:00.935Z,24.2
2023-03-07T08:43:00.833Z,24.0
2023-03-07T08:44:00.799Z,24.3
2023-03-07T08:45:00.823Z,24.5
2023-03-07T08:46:03.955Z,24.8
2023-03-07T08:47:00.784Z,24.5
2023-03-07T08:48:00.845Z,24.1
2023-03-07T08:49:00.812Z,23.9
2023-03-07T08:50:00.987Z,23.5
2023-03-07T08:51:09.398Z,23.3
2023-03-07T08:52:00.841Z,23.4
2023-03-07T08:53:00.785Z,23.8
2023-03-07T08:54:00.803Z,24.2
2023-03-07T08:55:00.810Z,24.6
2023-03-07T08:56:04.651Z,24.3
2023-03-07T08:57:00.804Z,23.6
2023-03-07T08:58:00.926Z,22.9
2023-03-07T08:59:00.835Z,22.6
2023-03-07T09:00:00.878Z,22.7
2023-03-07T09:01:00.863Z,23.1
2023-03-07T09:02:01.141Z,23.5
2023-03-07T09:03:00.841Z,23.7
2023-03-07T09:04:00.849Z,23.9
2023-03-07T09:05:00.876Z,24.0
2023-03-07T09:06:01.109Z,24.1
2023-03-07T09:07:01.720Z,23.8
2023-03-07T09:08:00.834Z,23.8
2023-03-07T09:09:00.871Z,24.0
2023-03-07T09:10:00.810Z,23.5
2023-03-07T09:11:01.113Z,23.1
2023-03-07T09:12:00.849Z,22.6
2023-03-07T09:13:00.910Z,22.3
2023-03-07T09:14:00.809Z,21.7
2023-03-07T09:15:00.831Z,21.8
2023-03-07T09:16:03.392Z,22.1
2023-03-07T09:17:00.867Z,22.5
2023-03-07T09:18:00.824Z,23.1
2023-03-07T09:19:00.973Z,23.2
2023-03-07T09:20:00.788Z,22.4
2023-03-07T09:21:01.396Z,21.7
2023-03-07T09:22:00.804Z,21.7
2023-03-07T09:23:00.815Z,21.9
2023-03-07T09:24:00.864Z,22.4
2023-03-07T09:25:00.886Z,22.2
2023-03-07T09:26:01.558Z,21.8
2023-03-07T09:27:00.820Z,21.8
2023-03-07T09:28:00.881Z,21.6
2023-03-07T09:29:00.766Z,21.5
2023-03-07T09:30:00.918Z,21.5
2023-03-07T09:31:08.795Z,21.7
2023-03-07T09:32:02.097Z,22.0
2023-03-07T09:33:00.854Z,21.9
2023-03-07T09:34:00.839Z,22.0
2023-03-07T09:35:00.862Z,22.3
2023-03-07T09:36:05.448Z,22.9
2023-03-07T09:37:00.913Z,23.5
2023-03-07T09:38:00.826Z,24.1
2023-03-07T09:39:00.840Z,24.4
2023-03-07T09:40:01.315Z,23.9
2023-03-07T09:41:06.954Z,23.6
2023-03-07T09:42:01.818Z,23.5
2023-03-07T09:43:00.821Z,24.0
2023-03-07T09:44:07.510Z,24.5
2023-03-07T09:45:00.796Z,24.8
2023-03-07T09:46:04.295Z,24.3
2023-03-07T09:47:10.679Z,24.1
2023-03-07T09:48:10.663Z,24.3
2023-03-07T09:49:10.693Z,24.4
2023-03-07T09:50:02.520Z,24.5
2023-03-07T09:51:11.761Z,24.7
2023-03-07T09:52:01.197Z,24.2
2023-03-07T09:53:02.769Z,23.8
2023-03-07T09:54:05.389Z,23.8
2023-03-07T09:55:03.257Z,23.6
2023-03-07T09:56:01.808Z,23.6
2023-03-07T09:57:01.642Z,23.9
2023-03-07T09:58:06.451Z,24.1
2023-03-07T09:59:13.686Z,23.9
2023-03-07T10:00:04.555Z,23.8
2023-03-07T10:01:01.111Z,23.7
2023-03-07T10:02:10.715Z,22.9
2023-03-07T10:03:01.863Z,22.5
2023-03-07T10:04:02.171Z,22.4
2023-03-07T10:05:09.261Z,22.7
2023-03-07T10:06:06.554Z,23.0
2023-03-07T10:07:03.104Z,22.9
2023-03-07T10:08:01.542Z,23.3
2023-03-07T10:09:01.524Z,23.7
2023-03-07T10:10:01.892Z,23.6
2023-03-07T10:11:04.136Z,23.4
2023-03-07T10:12:04.969Z,23.2
2023-03-07T10:13:01.852Z,23.1
2023-03-07T10:14:00.868Z,22.7
2023-03-07T10:15:09.337Z,22.4
2023-03-07T10:16:03.685Z,22.2
2023-03-07T10:17:10.279Z,21.8
2023-03-07T10:18:08.706Z,22.1
2023-03-07T10:19:10.680Z,21.2
2023-03-07T10:20:10.718Z,21.1
2023-03-07T10:21:10.659Z,21.2
2023-03-07T10:22:10.680Z,21.2
2023-03-07T10:23:10.679Z,21.3
2023-03-07T10:24:00.823Z,21.5
2023-03-07T10:25:10.663Z,21.1
2023-03-07T10:26:08.462Z,21.3
2023-03-07T10:27:09.432Z,21.2
2023-03-07T10:28:10.281Z,21.7
2023-03-07T10:29:01.853Z,21.9
2023-03-07T10:30:07.916Z,22.0
2023-03-07T10:31:10.702Z,22.4
2023-03-07T10:32:10.150Z,22.9
2023-03-07T10:33:01.814Z,22.7
2023-03-07T10:34:13.651Z,22.6
2023-03-07T10:35:10.673Z,22.4
2023-03-07T10:36:10.724Z,22.3
2023-03-07T10:37:10.624Z,22.4
2023-03-07T10:38:04.016Z,22.8
2023-03-07T10:39:10.666Z,22.7
2023-03-07T10:40:02.346Z,23.0
2023-03-07T10:41:04.312Z,23.1
2023-03-07T10:42:00.787Z,23.1
2023-03-07T10:43:00.944Z,22.8
2023-03-07T10:44:00.797Z,22.8
2023-03-07T10:45:01.170Z,22.5
2023-03-07T10:46:00.890Z,22.3
2023-03-07T10:47:01.053Z,22.3
2023-03-07T10:48:05.767Z,22.4
2023-03-07T10:49:09.877Z,22.7
2023-03-07T10:50:10.664Z,23.0
2023-03-07T10:51:06.224Z,23.5
2023-03-07T10:52:03.456Z,23.8
2023-03-07T10:53:02.527Z,23.9
2023-03-07T10:54:02.031Z,24.0
2023-03-07T10:55:10.684Z,24.1
2023-03-07T10:56:09.779Z,24.1
2023-03-07T10:57:01.844Z,24.0
2023-03-07T10:58:10.666Z,24.4
2023-03-07T10:59:02.228Z,24.6
2023-03-07T11:00:11.608Z,24.8
2023-03-07T11:01:04.220Z,24.6
2023-03-07T11:02:01.725Z,24.4
2023-03-07T11:03:00.848Z,24.5
2023-03-07T11:04:01.993Z,24.5
2023-03-07T11:05:01.333Z,24.6
2023-03-07T11:06:00.783Z,24.6
2023-03-07T11:07:00.848Z,24.4
2023-03-07T11:08:11.491Z,24.4
2023-03-07T11:09:08.235Z,24.2
2023-03-07T11:10:02.157Z,24.1
2023-03-07T11:11:02.171Z,23.9
2023-03-07T11:12:04.209Z,23.9
2023-03-07T11:13:10.696Z,24.0
2023-03-07T11:14:05.652Z,23.7
2023-03-07T11:15:10.698Z,23.5
2023-03-07T11:16:11.667Z,23.3
2023-03-07T11:17:01.435Z,23.3
2023-03-07T11:18:00.858Z,23.3
2023-03-07T11:19:00.858Z,23.1
2023-03-07T11:20:01.587Z,23.2
2023-03-07T11:21:00.846Z,23.1
2023-03-07T11:22:02.520Z,22.8
2023-03-07T11:23:10.686Z,22.4
2023-03-07T11:24:02.481Z,22.2
2023-03-07T11:25:05.373Z,22.1
2023-03-07T11:26:10.669Z,22.0
2023-03-07T11:27:00.812Z,22.0
2023-03-07T11:28:00.919Z,22.2
2023-03-07T11:29:05.618Z,22.1
2023-03-07T11:30:08.728Z,22.0
2023-03-07T11:31:01.878Z,21.7
2023-03-07T11:32:08.011Z,21.7
2023-03-07T11:33:07.067Z,21.8
2023-03-07T11:34:10.693Z,21.9
2023-03-07T11:35:05.687Z,22.1
2023-03-07T11:36:10.688Z,22.5
2023-03-07T11:37:08.350Z,22.8
2023-03-07T11:38:06.554Z,23.3
2023-03-07T11:39:08.221Z,23.4
2023-03-07T11:40:00.810Z,23.4
2023-03-07T11:41:06.749Z,23.6
2023-03-07T11:42:07.258Z,23.5
2023-03-07T11:43:10.729Z,23.5
2023-03-07T11:44:02.890Z,23.5
2023-03-07T11:45:10.833Z,23.2
2023-03-07T11:46:08.293Z,23.2
2023-03-07T11:47:10.155Z,23.3
2023-03-07T11:48:00.782Z,23.4
2023-03-07T11:49:10.765Z,23.5
2023-03-07T11:50:10.724Z,23.5
2023-03-07T11:51:01.271Z,23.5
2023-03-07T11:52:10.739Z,23.4
2023-03-07T11:53:00.835Z,23.2
2023-03-07T11:54:00.861Z,23.0
2023-03-07T11:55:04.206Z,23.1
2023-03-07T11:56:10.753Z,23.2
2023-03-07T11:57:10.096Z,23.5
2023-03-07T11:58:00.812Z,24.1
2023-03-07T11:59:10.677Z,24.5
2023-03-07T12:00:10.697Z,24.6
2023-03-07T12:01:00.777Z,24.6
2023-03-07T12:02:03.111Z,24.5
2023-03-07T12:03:10.823Z,24.4
2023-03-07T12:04:10.691Z,24.6
2023-03-07T12:05:01.833Z,24.5
2023-03-07T12:06:10.686Z,24.3
2023-03-07T12:07:10.685Z,24.3
2023-03-07T12:08:01.841Z,24.6
2023-03-07T12:09:10.692Z,24.7
2023-03-07T12:10:08.755Z,24.7
2023-03-07T12:11:10.711Z,24.6
2023-03-07T12:12:00.936Z,24.8
2023-03-07T12:13:10.679Z,24.9
2023-03-07T12:14:00.781Z,25.0
2023-03-07T12:15:10.647Z,25.0
2023-03-07T12:16:10.761Z,25.2
2023-03-07T12:17:10.719Z,25.4
2023-03-07T12:18:10.703Z,25.8
2023-03-07T12:19:01.859Z,26.0
2023-03-07T12:20:04.144Z,26.0
2023-03-07T12:21:00.779Z,26.0
2023-03-07T12:22:01.830Z,26.1
2023-03-07T12:23:00.793Z,25.7
2023-03-07T12:24:05.872Z,25.6
2023-03-07T12:25:11.073Z,25.2
2023-03-07T12:26:04.178Z,25.0
2023-03-07T12:27:00.836Z,24.8
2023-03-07T12:28:04.712Z,24.6
2023-03-07T12:29:05.098Z,24.6
2023-03-07T12:30:04.696Z,24.8
2023-03-07T12:31:10.732Z,24.6
2023-03-07T12:32:04.213Z,24.4
2023-03-07T12:33:01.122Z,24.4
2023-03-07T12:34:06.795Z,24.4
2023-03-07T12:35:00.792Z,24.4
2023-03-07T12:36:03.761Z,24.6
2023-03-07T12:37:03.838Z,24.8
2023-03-07T12:38:09.311Z,25.0
2023-03-07T12:39:10.708Z,24.9
2023-03-07T12:40:04.146Z,24.9
2023-03-07T12:41:04.465Z,25.0
2023-03-07T12:42:05.175Z,25.0
2023-03-07T12:43:10.675Z,24.9
2023-03-07T12:44:04.238Z,24.9
2023-03-07T12:45:01.877Z,24.9
2023-03-07T12:46:10.738Z,24.8
2023-03-07T12:47:09.535Z,25.0
2023-03-07T12:48:08.031Z,25.3
2023-03-07T12:49:00.821Z,25.4
2023-03-07T12:50:09.498Z,25.4
2023-03-07T12:51:08.740Z,25.2
2023-03-07T12:52:02.449Z,25.1
2023-03-07T12:53:05.163Z,25.3
2023-03-07T12:54:10.698Z,25.0
2023-03-07T12:55:06.192Z,25.2
2023-03-07T12:56:10.724Z,25.5
2023-03-07T12:57:00.856Z,25.4
2023-03-07T12:58:00.795Z,25.7
2023-03-07T12:59:10.676Z,25.8
2023-03-07T13:00:03.557Z,25.9
2023-03-07T13:01:03.834Z,25.8
2023-03-07T13:02:02.800Z,25.7
2023-03-07T13:03:02.550Z,25.6
2023-03-07T13:04:10.785Z,25.5
2023-03-07T13:05:00.859Z,25.6
2023-03-07T13:06:00.863Z,25.5
2023-03-07T13:07:10.682Z,25.2
2023-03-07T13:08:01.301Z,25.2
2023-03-07T13:09:01.550Z,25.2
2023-03-07T13:10:04.402Z,25.2
2023-03-07T13:11:00.833Z,25.0
2023-03-07T13:12:10.672Z,25.2
2023-03-07T13:13:00.850Z,25.4
2023-03-07T13:14:01.701Z,25.2
2023-03-07T13:15:02.852Z,25.5
2023-03-07T13:16:03.385Z,25.5
2023-03-07T13:17:00.872Z,25.6
2023-03-07T13:18:01.041Z,26.0
2023-03-07T13:19:10.685Z,26.0
2023-03-07T13:20:00.787Z,25.4
2023-03-07T13:21:10.836Z,25.5
2023-03-07T13:22:01.758Z,25.6
2023-03-07T13:23:10.726Z,25.4
2023-03-07T13:24:10.673Z,25.5
2023-03-07T13:25:10.680Z,25.2
2023-03-07T13:26:02.414Z,25.0
2023-03-07T13:27:10.682Z,25.2
2023-03-07T13:28:01.384Z,25.3
2023-03-07T13:29:00.878Z,25.3
2023-03-07T13:30:10.669Z,25.3
2023-03-07T13:31:10.743Z,25.2
2023-03-07T13:32:00.828Z,25.4